createdAt,value
2017-09-11T00:01:15.481Z,12.85
2017-09-11T00:03:43.769Z,12.84
2017-09-11T00:06:12.057Z,12.85
2017-09-11T00:08:40.364Z,12.85
2017-09-11T00:11:08.649Z,12.87
2017-09-11T00:13:37.721Z,12.84
2017-09-11T00:16:06.029Z,12.86
2017-09-11T00:18:35.092Z,12.82
2017-09-11T00:21:03.381Z,12.83
2017-09-11T00:23:31.686Z,12.85
2017-09-11T00:26:00.738Z,12.87
2017-09-11T00:28:29.047Z,12.90
2017-09-11T00:30:58.107Z,12.89
2017-09-11T00:33:27.189Z,12.90
2017-09-11T00:35:55.472Z,12.87
2017-09-11T00:38:23.761Z,12.85
2017-09-11T00:40:52.068Z,12.84
2017-09-11T00:43:21.124Z,12.83
2017-09-11T00:45:49.416Z,12.82
2017-09-11T00:48:17.705Z,12.80
2017-09-11T00:50:46.774Z,12.88
2017-09-11T00:53:15.061Z,12.83
2017-09-11T00:55:43.384Z,12.81
2017-09-11T00:58:11.681Z,12.76
2017-09-11T01:00:39.977Z,12.68
2017-09-11T01:03:08.259Z,12.68
2017-09-11T01:05:36.579Z,12.67
2017-09-11T01:08:05.632Z,12.62
2017-09-11T01:10:33.928Z,12.55
2017-09-11T01:13:02.221Z,12.48
2017-09-11T01:15:31.293Z,12.45
2017-09-11T01:17:59.602Z,12.38
2017-09-11T01:20:27.894Z,12.36
2017-09-11T01:22:56.214Z,12.32
2017-09-11T01:25:25.317Z,12.30
2017-09-11T01:27:53.676Z,12.27
2017-09-11T01:30:21.960Z,12.28
2017-09-11T01:32:50.272Z,12.25
2017-09-11T01:35:19.432Z,12.25
2017-09-11T01:37:47.752Z,12.26
2017-09-11T01:40:16.812Z,12.28
2017-09-11T01:42:45.152Z,12.24
2017-09-11T01:45:13.469Z,12.03
2017-09-11T01:47:41.781Z,12.22
2017-09-11T01:50:10.086Z,12.23
2017-09-11T01:52:38.374Z,12.21
2017-09-11T01:55:06.676Z,12.24
2017-09-11T01:57:35.011Z,12.23
2017-09-11T02:00:03.300Z,12.24
2017-09-11T02:02:31.580Z,12.26
2017-09-11T02:04:59.877Z,12.24
2017-09-11T02:07:28.173Z,12.25
2017-09-11T02:09:56.493Z,12.28
2017-09-11T02:12:24.782Z,12.37
2017-09-11T02:14:53.064Z,12.45
2017-09-11T02:17:21.364Z,12.53
2017-09-11T02:19:49.653Z,12.58
2017-09-11T02:22:17.951Z,12.66
2017-09-11T02:24:47.012Z,12.73
2017-09-11T02:27:15.313Z,12.82
2017-09-11T02:29:44.371Z,12.89
2017-09-11T02:32:12.667Z,12.91
2017-09-11T02:34:40.971Z,12.91
2017-09-11T02:37:10.036Z,12.98
2017-09-11T02:39:38.315Z,13.01
2017-09-11T02:42:06.628Z,13.04
2017-09-11T02:44:35.684Z,13.04
2017-09-11T02:47:03.990Z,13.04
2017-09-11T02:49:33.059Z,13.06
2017-09-11T02:52:01.354Z,13.06
2017-09-11T02:54:30.421Z,13.13
2017-09-11T02:56:58.713Z,13.14
2017-09-11T02:59:27.018Z,13.17
2017-09-11T03:01:56.085Z,13.20
2017-09-11T03:04:24.380Z,13.20
2017-09-11T03:06:53.433Z,13.24
2017-09-11T03:09:21.801Z,13.24
2017-09-11T03:11:50.087Z,13.24
2017-09-11T03:14:18.417Z,13.21
2017-09-11T03:16:47.480Z,13.21
2017-09-11T03:19:15.781Z,13.21
2017-09-11T03:21:44.854Z,13.19
2017-09-11T03:24:13.181Z,13.20
2017-09-11T03:26:41.481Z,13.18
2017-09-11T03:29:09.785Z,13.21
2017-09-11T03:31:38.103Z,13.19
2017-09-11T03:34:06.393Z,13.16
2017-09-11T03:36:34.716Z,13.13
2017-09-11T03:39:03.010Z,13.07
2017-09-11T03:41:32.066Z,13.05
2017-09-11T03:44:00.356Z,13.01
2017-09-11T03:46:28.654Z,12.97
2017-09-11T03:48:57.716Z,12.94
2017-09-11T03:51:26.004Z,12.93
2017-09-11T03:53:54.309Z,12.95
2017-09-11T03:56:23.373Z,12.93
2017-09-11T03:58:51.696Z,12.97
2017-09-11T04:01:20.768Z,13.01
2017-09-11T04:03:49.824Z,13.12
2017-09-11T04:06:18.140Z,13.17
2017-09-11T04:08:46.425Z,13.22
2017-09-11T04:11:15.497Z,13.23
2017-09-11T04:13:43.810Z,13.20
2017-09-11T04:16:12.873Z,13.19
2017-09-11T04:18:41.167Z,13.13
2017-09-11T04:21:10.299Z,13.09
2017-09-11T04:23:38.580Z,13.06
2017-09-11T04:26:06.875Z,13.07
2017-09-11T04:28:35.193Z,13.02
2017-09-11T04:31:04.293Z,13.01
2017-09-11T04:33:33.348Z,13.00
2017-09-11T04:38:39.910Z,12.92
2017-09-11T04:41:08.235Z,12.91
2017-09-11T04:43:36.562Z,12.85
2017-09-11T04:46:04.857Z,12.83
2017-09-11T04:48:33.166Z,12.74
2017-09-11T04:51:01.466Z,12.74
2017-09-11T04:53:30.537Z,12.75
2017-09-11T04:55:58.833Z,12.70
2017-09-11T04:58:27.914Z,12.65
2017-09-11T05:00:56.239Z,12.64
2017-09-11T05:03:24.567Z,12.71
2017-09-11T05:05:52.862Z,12.78
2017-09-11T05:08:21.932Z,12.88
2017-09-11T05:10:50.230Z,13.04
2017-09-11T05:13:19.325Z,13.17
2017-09-11T05:15:48.390Z,13.31
2017-09-11T05:18:16.693Z,13.44
2017-09-11T05:20:45.793Z,13.50
2017-09-11T05:23:14.093Z,13.68
2017-09-11T05:25:42.395Z,13.73
2017-09-11T05:28:10.686Z,13.82
2017-09-11T05:30:39.030Z,14.00
2017-09-11T05:33:07.311Z,14.13
2017-09-11T05:35:35.621Z,14.43
2017-09-11T05:38:04.023Z,14.43
2017-09-11T05:40:32.373Z,14.51
2017-09-11T05:43:00.671Z,14.53
2017-09-11T05:45:29.765Z,14.60
2017-09-11T05:47:58.083Z,14.78
2017-09-11T05:50:26.382Z,14.86
2017-09-11T05:52:54.696Z,15.15
2017-09-11T05:55:22.999Z,15.20
2017-09-11T05:57:52.077Z,15.63
2017-09-11T06:00:21.143Z,15.84
2017-09-11T06:02:49.454Z,15.79
2017-09-11T06:05:18.529Z,15.95
2017-09-11T06:07:46.836Z,15.89
2017-09-11T06:10:15.923Z,16.00
2017-09-11T06:12:45.086Z,16.23
2017-09-11T06:15:13.477Z,16.26
2017-09-11T06:17:41.774Z,16.30
2017-09-11T06:20:10.842Z,16.28
2017-09-11T06:22:39.228Z,16.52
2017-09-11T06:25:07.608Z,16.62
2017-09-11T06:27:35.897Z,16.40
2017-09-11T06:30:04.201Z,16.42
2017-09-11T06:32:32.502Z,16.37
2017-09-11T06:35:00.809Z,16.35
2017-09-11T06:37:29.111Z,16.50
2017-09-11T06:39:58.207Z,16.56
2017-09-11T06:42:27.276Z,16.40
2017-09-11T06:44:55.569Z,16.23
2017-09-11T06:47:23.873Z,16.26
2017-09-11T06:49:52.182Z,16.22
2017-09-11T06:52:20.500Z,16.40
2017-09-11T06:54:48.819Z,16.12
2017-09-11T06:57:17.138Z,16.09
2017-09-11T06:59:45.443Z,16.09
2017-09-11T07:02:13.804Z,16.08
2017-09-11T07:04:42.876Z,16.04
2017-09-11T07:07:11.197Z,16.13
2017-09-11T07:09:40.258Z,16.15
2017-09-11T07:12:26.252Z,16.21
2017-09-11T07:14:54.550Z,16.37
2017-09-11T07:17:23.615Z,16.39
2017-09-11T07:19:51.917Z,16.39
2017-09-11T07:22:20.210Z,16.12
2017-09-11T07:24:49.287Z,16.00
2017-09-11T07:27:17.585Z,15.97
2017-09-11T07:29:46.657Z,15.86
2017-09-11T07:32:14.954Z,15.94
2017-09-11T07:34:44.025Z,15.89
2017-09-11T07:37:12.323Z,15.85
2017-09-11T07:39:41.419Z,15.78
2017-09-11T07:42:10.498Z,15.75
2017-09-11T07:44:38.799Z,15.77
2017-09-11T07:47:07.879Z,15.78
2017-09-11T07:49:36.174Z,15.68
2017-09-11T07:52:05.256Z,15.67
2017-09-11T07:54:34.325Z,15.71
2017-09-11T07:57:02.631Z,15.79
2017-09-11T07:59:31.703Z,15.82
2017-09-11T08:02:00.010Z,16.00
2017-09-11T08:04:29.078Z,15.87
2017-09-11T08:06:57.397Z,15.78
2017-09-11T08:09:25.693Z,15.98
2017-09-11T08:11:54.023Z,15.95
2017-09-11T08:14:22.330Z,15.84
2017-09-11T08:16:50.627Z,15.87
2017-09-11T08:19:18.934Z,15.90
2017-09-11T08:21:47.230Z,15.96
2017-09-11T08:24:15.538Z,16.07
2017-09-11T08:26:43.838Z,16.11
2017-09-11T08:29:12.138Z,16.39
2017-09-11T08:31:40.447Z,16.59
2017-09-11T08:34:09.530Z,16.70
2017-09-11T08:36:37.823Z,16.77
2017-09-11T08:39:06.913Z,16.87
2017-09-11T08:41:35.977Z,16.99
2017-09-11T08:44:04.269Z,16.82
2017-09-11T08:46:32.581Z,16.82
2017-09-11T08:49:00.878Z,16.70
2017-09-11T08:51:29.187Z,16.81
2017-09-11T08:53:57.479Z,16.99
2017-09-11T08:56:25.786Z,17.14
2017-09-11T08:58:54.846Z,17.09
2017-09-11T09:01:23.159Z,17.42
2017-09-11T09:03:51.456Z,17.45
2017-09-11T09:06:19.759Z,17.67
2017-09-11T09:08:48.058Z,17.46
2017-09-11T09:11:16.398Z,17.47
2017-09-11T09:13:44.689Z,17.46
2017-09-11T09:16:12.994Z,17.22
2017-09-11T09:18:41.297Z,17.27
2017-09-11T09:21:09.596Z,17.18
2017-09-11T09:23:37.901Z,16.96
2017-09-11T09:26:06.194Z,16.90
2017-09-11T09:28:35.274Z,16.86
2017-09-11T09:31:03.571Z,16.64
2017-09-11T09:33:31.874Z,16.60
2017-09-11T09:36:00.935Z,16.77
2017-09-11T09:38:29.271Z,16.79
2017-09-11T09:40:57.576Z,17.10
2017-09-11T09:43:25.870Z,17.23
2017-09-11T09:45:54.180Z,17.21
2017-09-11T09:48:22.488Z,17.08
2017-09-11T09:50:50.881Z,16.90
2017-09-11T09:53:19.961Z,16.90
2017-09-11T09:55:48.262Z,16.98
2017-09-11T09:58:16.554Z,16.92
2017-09-11T10:00:44.867Z,16.86
2017-09-11T10:03:13.166Z,17.01
2017-09-11T10:05:41.478Z,17.00
2017-09-11T10:08:09.778Z,16.95
2017-09-11T10:10:38.847Z,17.02
2017-09-11T10:13:07.154Z,17.04
2017-09-11T10:15:36.226Z,17.04
2017-09-11T10:18:04.530Z,16.91
2017-09-11T10:20:33.615Z,16.97
2017-09-11T10:23:02.714Z,17.05
2017-09-11T10:25:31.773Z,16.98
2017-09-11T10:28:00.065Z,17.03
2017-09-11T10:30:28.371Z,17.17
2017-09-11T10:32:57.431Z,17.13
2017-09-11T10:35:25.748Z,17.25
2017-09-11T10:37:54.070Z,17.19
2017-09-11T10:40:22.382Z,17.09
2017-09-11T10:42:51.441Z,17.28
2017-09-11T10:45:19.754Z,17.40
2017-09-11T10:47:48.822Z,17.30
2017-09-11T10:50:17.134Z,17.45
2017-09-11T10:52:46.202Z,17.36
2017-09-11T10:55:14.506Z,17.40
2017-09-11T10:57:43.663Z,17.40
2017-09-11T11:00:11.966Z,17.32
2017-09-11T11:02:41.045Z,17.39
2017-09-11T11:05:09.338Z,17.20
2017-09-11T11:07:38.405Z,17.22
2017-09-11T11:10:06.698Z,17.24
2017-09-11T11:12:35.030Z,17.34
2017-09-11T11:15:03.330Z,17.42
2017-09-11T11:17:31.618Z,17.45
2017-09-11T11:19:59.923Z,17.43
2017-09-11T11:22:28.982Z,17.34
2017-09-11T11:24:57.288Z,17.44
2017-09-11T11:27:26.354Z,17.56
2017-09-11T11:29:54.650Z,17.69
2017-09-11T11:32:22.945Z,17.82
2017-09-11T11:34:52.021Z,18.10
2017-09-11T11:37:20.319Z,17.94
2017-09-11T11:40:21.942Z,17.85
2017-09-11T11:42:50.252Z,17.89
2017-09-11T11:45:19.346Z,17.99
2017-09-11T11:47:47.641Z,18.17
2017-09-11T11:50:16.710Z,18.14
2017-09-11T11:52:45.027Z,18.30
2017-09-11T11:55:14.090Z,18.33
2017-09-11T11:57:43.161Z,18.09
2017-09-11T12:00:11.464Z,18.19
2017-09-11T12:02:40.535Z,18.15
2017-09-11T12:05:08.834Z,18.23
2017-09-11T12:07:37.926Z,18.37
2017-09-11T12:10:06.554Z,18.27
2017-09-11T12:12:34.850Z,18.52
2017-09-11T12:15:03.161Z,18.66
2017-09-11T12:17:31.457Z,18.77
2017-09-11T12:20:00.539Z,18.49
2017-09-11T12:22:29.601Z,18.39
2017-09-11T12:24:57.903Z,18.61
2017-09-11T12:27:26.214Z,18.59
2017-09-11T12:29:54.521Z,18.66
2017-09-11T12:32:22.827Z,19.20
2017-09-11T12:34:51.162Z,19.94
2017-09-11T12:37:20.046Z,20.13
2017-09-11T12:39:48.355Z,20.10
2017-09-11T12:42:16.686Z,19.73
2017-09-11T12:44:45.073Z,19.87
2017-09-11T12:47:13.374Z,19.77
2017-09-11T12:49:41.670Z,19.92
2017-09-11T12:52:10.000Z,19.54
2017-09-11T12:54:38.396Z,19.40
2017-09-11T12:57:06.725Z,19.62
2017-09-11T12:59:35.034Z,19.50
2017-09-11T13:02:03.343Z,19.37
2017-09-11T13:04:31.653Z,19.26
2017-09-11T13:06:59.946Z,18.96
2017-09-11T13:09:29.446Z,18.76
2017-09-11T13:11:58.513Z,18.56
2017-09-11T13:14:26.822Z,18.48
2017-09-11T13:16:55.890Z,18.26
2017-09-11T13:19:24.231Z,18.34
2017-09-11T13:21:52.540Z,18.30
2017-09-11T13:24:20.851Z,18.28
2017-09-11T13:26:49.933Z,18.39
2017-09-11T13:29:18.239Z,18.34
2017-09-11T13:31:46.550Z,18.19
2017-09-11T13:34:14.856Z,18.11
2017-09-11T13:36:43.187Z,17.96
2017-09-11T13:39:11.482Z,17.58
2017-09-11T13:41:39.786Z,17.60
2017-09-11T13:44:08.097Z,17.77
2017-09-11T13:46:37.163Z,17.88
2017-09-11T13:49:05.487Z,18.47
2017-09-11T13:51:33.803Z,19.48
2017-09-11T13:54:02.112Z,19.22
2017-09-11T13:56:31.199Z,19.01
2017-09-11T13:58:59.522Z,18.97
2017-09-11T14:01:27.825Z,19.04
2017-09-11T14:03:56.146Z,18.84
2017-09-11T14:06:25.215Z,18.73
2017-09-11T14:08:53.617Z,18.79
2017-09-11T14:11:22.683Z,18.38
2017-09-11T14:13:50.987Z,18.66
2017-09-11T14:16:20.069Z,18.52
2017-09-11T14:18:48.383Z,18.35
2017-09-11T14:21:16.725Z,18.46
2017-09-11T14:23:45.011Z,18.18
2017-09-11T14:26:14.086Z,18.24
2017-09-11T14:28:42.401Z,18.33
2017-09-11T14:31:10.731Z,18.40
2017-09-11T14:33:39.038Z,18.48
2017-09-11T14:36:08.118Z,18.55
2017-09-11T14:38:36.444Z,18.15
2017-09-11T14:41:04.745Z,18.08
2017-09-11T14:43:33.054Z,17.85
2017-09-11T14:46:01.360Z,17.74
2017-09-11T14:48:29.664Z,17.99
2017-09-11T14:50:57.966Z,18.00
2017-09-11T14:53:26.274Z,17.96
2017-09-11T14:55:55.336Z,18.03
2017-09-11T14:58:23.675Z,17.99
2017-09-11T15:00:51.974Z,18.20
2017-09-11T15:03:20.274Z,18.14
2017-09-11T15:05:48.589Z,18.10
2017-09-11T15:08:17.663Z,18.16
2017-09-11T15:10:45.979Z,18.03
2017-09-11T15:13:14.278Z,18.50
2017-09-11T15:15:42.594Z,19.44
2017-09-11T15:18:10.890Z,19.65
2017-09-11T15:20:39.974Z,19.26
2017-09-11T15:23:09.043Z,19.07
2017-09-11T15:25:37.374Z,18.57
2017-09-11T15:28:05.726Z,18.66
2017-09-11T15:30:34.793Z,18.83
2017-09-11T15:33:03.108Z,18.86
2017-09-11T15:35:32.174Z,18.80
2017-09-11T15:38:00.483Z,18.73
2017-09-11T15:40:29.545Z,18.75
2017-09-11T15:42:57.854Z,18.71
2017-09-11T15:45:26.149Z,18.76
2017-09-11T15:47:54.494Z,18.79
2017-09-11T15:50:23.558Z,18.75
2017-09-11T15:52:52.618Z,18.95
2017-09-11T15:55:20.943Z,18.81
2017-09-11T15:57:49.237Z,19.04
2017-09-11T16:00:18.318Z,18.94
2017-09-11T16:02:46.617Z,18.81
2017-09-11T16:05:15.702Z,18.82
2017-09-11T16:07:44.770Z,18.60
2017-09-11T16:10:13.107Z,18.54
2017-09-11T16:12:41.428Z,18.40
2017-09-11T16:15:09.732Z,18.40
2017-09-11T16:17:38.816Z,18.17
2017-09-11T16:20:07.117Z,18.15
2017-09-11T16:22:35.439Z,18.16
2017-09-11T16:25:03.751Z,18.07
2017-09-11T16:27:32.058Z,18.06
2017-09-11T16:30:00.354Z,17.99
2017-09-11T16:32:28.682Z,18.01
2017-09-11T16:34:56.985Z,17.86
2017-09-11T16:37:26.053Z,17.66
2017-09-11T16:39:54.362Z,17.69
2017-09-11T16:42:22.657Z,17.57
2017-09-11T16:44:50.971Z,17.51
2017-09-11T16:47:19.275Z,17.44
2017-09-11T16:49:48.354Z,17.41
2017-09-11T16:52:16.646Z,17.44
2017-09-11T16:54:45.746Z,17.23
2017-09-11T16:57:14.820Z,17.15
2017-09-11T16:59:43.139Z,17.02
2017-09-11T17:02:11.453Z,16.93
2017-09-11T17:04:39.754Z,16.97
2017-09-11T17:07:08.061Z,17.03
2017-09-11T17:09:36.366Z,17.06
2017-09-11T17:12:04.681Z,17.03
2017-09-11T17:14:32.982Z,17.07
2017-09-11T17:17:02.052Z,16.95
2017-09-11T17:19:30.351Z,16.90
2017-09-11T17:21:59.450Z,16.75
2017-09-11T17:24:28.519Z,16.70
2017-09-11T17:26:56.821Z,16.57
2017-09-11T17:29:25.892Z,16.49
2017-09-11T17:31:54.186Z,16.42
2017-09-11T17:34:23.262Z,16.36
2017-09-11T17:36:51.562Z,16.30
2017-09-11T17:39:20.646Z,16.24
2017-09-11T17:41:48.950Z,16.10
2017-09-11T17:44:17.265Z,16.00
2017-09-11T17:46:45.563Z,15.92
2017-09-11T17:49:13.894Z,15.80
2017-09-11T17:51:42.186Z,15.73
2017-09-11T17:54:10.492Z,15.63
2017-09-11T17:56:38.804Z,15.62
2017-09-11T17:59:07.882Z,15.54
2017-09-11T18:01:36.185Z,15.47
2017-09-11T18:04:04.481Z,15.43
2017-09-11T18:06:33.061Z,15.46
2017-09-11T18:09:01.364Z,15.38
2017-09-11T18:11:29.669Z,15.28
2017-09-11T18:13:57.965Z,15.19
2017-09-11T18:16:27.070Z,15.13
2017-09-11T18:18:55.405Z,15.12
2017-09-11T18:21:23.697Z,15.13
2017-09-11T18:23:52.022Z,15.09
2017-09-11T18:26:20.318Z,15.06
2017-09-11T18:28:48.627Z,14.97
2017-09-11T18:31:16.922Z,14.85
2017-09-11T18:33:45.994Z,14.78
2017-09-11T18:36:14.290Z,14.64
2017-09-11T18:38:43.418Z,14.56
2017-09-11T18:41:11.714Z,14.44
2017-09-11T18:43:40.043Z,14.40
2017-09-11T18:46:09.112Z,14.31
2017-09-11T18:48:37.406Z,14.24
2017-09-11T18:51:06.483Z,14.20
2017-09-11T18:53:34.779Z,14.14
2017-09-11T18:56:03.855Z,14.06
2017-09-11T18:58:32.177Z,13.92
2017-09-11T19:01:00.479Z,13.81
2017-09-11T19:03:28.777Z,13.75
2017-09-11T19:05:57.091Z,13.70
2017-09-11T19:08:26.150Z,13.64
2017-09-11T19:10:54.458Z,13.57
2017-09-11T19:13:23.528Z,13.55
2017-09-11T19:15:51.845Z,13.46
2017-09-11T19:18:20.166Z,13.45
2017-09-11T19:20:48.461Z,13.45
2017-09-11T19:23:16.766Z,13.42
2017-09-11T19:25:45.825Z,13.38
2017-09-11T19:28:14.130Z,13.37
2017-09-11T19:30:43.210Z,13.33
2017-09-11T19:33:11.529Z,13.29
2017-09-11T19:35:39.827Z,13.28
2017-09-11T19:38:08.153Z,13.29
2017-09-11T19:40:37.218Z,13.26
2017-09-11T19:43:05.522Z,13.20
2017-09-11T19:45:34.602Z,13.18
2017-09-11T19:48:02.898Z,13.16
2017-09-11T19:50:31.205Z,13.13
2017-09-11T19:52:59.502Z,13.09
2017-09-11T19:55:27.821Z,13.04
2017-09-11T19:57:56.122Z,13.05
2017-09-11T20:00:24.430Z,13.02
2017-09-11T20:02:52.734Z,13.01
2017-09-11T20:05:21.034Z,13.05
2017-09-11T20:07:49.352Z,13.07
2017-09-11T20:10:17.654Z,13.06
2017-09-11T20:12:45.958Z,13.10
2017-09-11T20:15:14.258Z,13.12
2017-09-11T20:17:43.315Z,13.13
2017-09-11T20:20:12.394Z,13.13
2017-09-11T20:22:40.699Z,13.23
2017-09-11T20:25:09.005Z,13.23
2017-09-11T20:27:37.316Z,13.21
2017-09-11T20:30:05.626Z,13.16
2017-09-11T20:32:33.922Z,13.13
2017-09-11T20:35:02.994Z,13.15
2017-09-11T20:37:31.294Z,13.10
2017-09-11T20:40:00.361Z,13.00
2017-09-11T20:42:28.666Z,12.97
2017-09-11T20:44:57.757Z,12.92
2017-09-11T20:47:26.818Z,12.87
2017-09-11T20:49:55.123Z,12.81
2017-09-11T20:52:23.438Z,12.74
2017-09-11T20:54:51.736Z,12.70
2017-09-11T20:57:20.042Z,12.62
2017-09-11T20:59:48.334Z,12.62
2017-09-11T21:02:16.640Z,12.65
2017-09-11T21:04:44.934Z,12.63
2017-09-11T21:07:13.246Z,12.59
2017-09-11T21:09:41.537Z,12.59
2017-09-11T21:12:09.864Z,12.58
2017-09-11T21:14:38.167Z,12.54
2017-09-11T21:17:06.463Z,12.53
2017-09-11T21:19:34.775Z,12.52
2017-09-11T21:22:03.074Z,12.47
2017-09-11T21:24:31.396Z,12.41
2017-09-11T21:26:59.726Z,12.35
2017-09-11T21:29:28.034Z,12.28
2017-09-11T21:31:56.326Z,12.20
2017-09-11T21:34:24.634Z,12.16
2017-09-11T21:36:53.706Z,12.12
2017-09-11T21:39:22.025Z,12.08
2017-09-11T21:41:50.326Z,12.07
2017-09-11T21:44:18.650Z,12.11
2017-09-11T21:46:47.715Z,12.15
2017-09-11T21:49:16.014Z,12.19
2017-09-11T21:51:44.323Z,12.23
2017-09-11T21:54:12.634Z,12.26
2017-09-11T21:56:40.936Z,12.26
2017-09-11T21:59:09.242Z,12.22
2017-09-11T22:01:37.554Z,12.22
2017-09-11T22:04:05.855Z,12.26
2017-09-11T22:06:34.168Z,12.27
2017-09-11T22:09:03.240Z,12.22
2017-09-11T22:11:31.573Z,12.14
2017-09-11T22:13:59.877Z,12.09
2017-09-11T22:16:28.170Z,12.06
2017-09-11T22:18:56.469Z,12.05
2017-09-11T22:21:25.526Z,12.05
2017-09-11T22:23:53.838Z,12.07
2017-09-11T22:26:22.907Z,12.06
2017-09-11T22:28:51.210Z,12.05
2017-09-11T22:31:20.266Z,12.04
2017-09-11T22:33:48.590Z,12.04
2017-09-11T22:36:17.645Z,12.05
2017-09-11T22:38:45.937Z,12.05
2017-09-11T22:41:14.248Z,12.03
2017-09-11T22:43:42.546Z,12.06
2017-09-11T22:46:10.848Z,12.09
2017-09-11T22:48:39.157Z,12.08
2017-09-11T22:51:08.225Z,12.05
2017-09-11T22:53:36.522Z,12.14
2017-09-11T22:56:05.661Z,12.20
2017-09-11T22:58:33.955Z,12.18
2017-09-11T23:01:02.270Z,12.16
2017-09-11T23:03:31.342Z,12.17
2017-09-11T23:05:59.639Z,12.12
2017-09-11T23:08:27.951Z,12.13
2017-09-11T23:10:56.248Z,12.12
2017-09-11T23:13:24.550Z,12.10
2017-09-11T23:15:52.846Z,12.09
2017-09-11T23:18:21.162Z,12.02
2017-09-11T23:20:49.449Z,12.01
2017-09-11T23:23:17.752Z,11.99
2017-09-11T23:25:46.053Z,11.99
2017-09-11T23:28:14.356Z,11.99
2017-09-11T23:30:43.411Z,11.98
2017-09-11T23:33:11.721Z,11.95
2017-09-11T23:35:40.802Z,11.96
2017-09-11T23:38:09.097Z,11.96
2017-09-11T23:40:38.165Z,11.90
2017-09-11T23:43:06.462Z,11.88
2017-09-11T23:45:35.527Z,11.91
2017-09-11T23:48:03.867Z,11.94
2017-09-11T23:50:32.165Z,12.03
2017-09-11T23:53:00.452Z,11.97
2017-09-11T23:55:28.754Z,11.92
2017-09-11T23:57:57.054Z,11.89
